Skip Navigation Links Skip Navigation Links

Current Weather

Kununurra Kununurra Aws, Australia

For information only: do not use for flight planning or navigation.
Latest weather
Observation time Thursday, January 27, 2022 4:00 PM AEDT
Local time Thursday, January 27, 2022 4:11 PM AEDT
Flight conditions Visual Meteorological Conditions
Winds
Wind direction North-Northwest (330°)
Wind speed 12 mph
Visibility 6.2 mi.
Sky condition
Ceiling unlimited
Cloud layer scattered clouds 4,300 ft.
Cloud layer scattered clouds 6,100 ft.
Temperature 91°F
Dewpoint 75°F
Altimeter 29.62 in.Hg
Derived measurements
Relative humidity 59%
Heat index 103°F
Density altitude 2837 ft.
Remarks
Fully automated report.
METAR YPKU 270500Z AUTO 33010KT 9999 // SCT043 SCT061 33/24 Q1003

Settings

Location code

InnerDrive.Weather 4.0.6770.0 Release CLR 4.0.30319.42000
Copyright ©2018 Inner Drive Technology. All rights reserved. Portions Copyright ©1986-2018 David Braverman.

Find weather

Site navigation


Skip Navigation Links

Place info

Page info

PayPal - The safer, easier way to pay online!

Return home.

Copyright ©2022 Inner Drive Technology. Purveyors of fine, hand-crafted computer software. Page printed 2022-01-27T05:11:47 UTC.